To NAV CANADA Home Page Login to a new session Search on AWWS site Feedback and Comments Disclaimer Vers la page française équivalente Tips FAQ What's new on the site To the Forecasts and Observations / NOTAM section To "File a Flight Plan" website Publications and other links Update of the User's profile FIC Telephone Numbers My Weather Data Folder Route Weather Data Regional Weather Data Local Weather Data To the Forecasts and Observations / NOTAM section
Request Generated 04/16/2014 at 15:58:48 UTC . Weather information available at that time is displayed.

METAR/TAF

HOPE/BC    (show WxCam)

SPECI CYHE 161515Z AUTO 11003KT 9SM -RA BKN037 OVC048 07/07 A3004 RMK
SLP173=
SPECI CYHE 161512Z AUTO 11004KT 9SM OVC037 07/06 A3004 RMK SLP173=
METAR CYHE 161500Z AUTO 11004KT 9SM -RA OVC037 RMK PCPN 1.0MM PAST HR
T MISG TD MISG=
METAR CYHE 161400Z AUTO 00000KT 8SM -RA SCT007 SCT024 BKN031 OVC041
07/06 A3004 RMK PCPN 1.2MM PAST HR SLP173=
SPECI CYHE 161359Z AUTO VRB02KT 8SM -RA SCT007 SCT024 BKN031 OVC041
07/06 A3004 RMK PCPN 1.2MM PAST HR SLP173=
SPECI CYHE 161356Z AUTO VRB02KT 6SM -RA BR SCT007 BKN021 BKN026
OVC030 07/06 A3004 RMK PCPN 1.2MM PAST HR SLP173=
SPECI CYHE 161355Z AUTO VRB02KT 6SM -RA BR BKN007 BKN021 BKN026
OVC030 07/06 A3004 RMK PCPN 1.2MM PAST HR SLP174=
SPECI CYHE 161352Z AUTO 14002KT 5SM -RA BR BKN007 BKN021 OVC030 07/06
A3004 RMK PCPN 1.0MM PAST HR SLP173=
SPECI CYHE 161347Z AUTO 00000KT 5SM -RA BR SCT007 BKN021 OVC030 07/06
A3004 RMK PCPN 1.0MM PAST HR SLP173=
METAR CYHE 161300Z AUTO 11003KT 9SM -RA FEW011 OVC019 07/07 A3003 RMK
SLP171=

CYHE - No TAF is issued for this station

Your time UTC time
Weather data provided by Environment Canada and NAV CANADA